Burlington, Vermont
Current Conditions -  °F | °C
As of 7:34 AM on Friday 24 Oct 2014 (Local Time) from KBTV Reporting Station
Haze Haze  
Wind Chill: 37°   Ceiling: 600
Heat Index: 42°   Visibility: 2.5mi
Dew Point: 40°   Wind: 9mph
Humidity: 92%   Direction: 10°N
Pressure: 29.86"   Gusts: NA
Location:  44.48°N, 73.21°W
Report Text: KBTV 241134Z 01008KT 2 1/2SM BR BKN006 BKN010 OVC014 06/04 A2986 RMK AO2 RAE02 P0000 T00560044
Loading
Personal Weather Stations






























Interactive Weather Map
Tropical Storm Tracking
New forecast layout! Learn more

10-Day Weather Forecast

Advertisements
Track Severe Weather on mobile